Time;durP1;ratioP1;P1;durP2;ratioP2;P2;SDS_P1;SDS_P2;PMS_P1;PMS_P2;Temp;Humidity;BMP_temperature;BMP_pressure;BME280_temperature;BME280_humidity;BME280_pressure;Samples;Min_cycle;Max_cycle;Signal;HPM_P1;HPM_P2
2023/02/06 00:00:41;;;;;;;14.57;3.92;;;3.50;99.90;;;;;;5042280;28;20219;-65
2023/02/06 00:03:07;;;;;;;13.45;4.32;;;3.60;99.90;;;;;;5043467;28;20869;-65
2023/02/06 00:05:33;;;;;;;14.40;4.53;;;3.50;99.90;;;;;;5047298;28;20032;-65
2023/02/06 00:07:58;;;;;;;23.27;4.60;;;3.40;99.90;;;;;;5030643;28;20055;-65
2023/02/06 00:10:24;;;;;;;20.02;4.70;;;3.30;99.90;;;;;;5040429;28;20021;-67
2023/02/06 00:12:50;;;;;;;12.70;4.10;;;3.30;99.90;;;;;;5044445;28;20737;-65
2023/02/06 00:15:15;;;;;;;25.55;5.18;;;3.20;99.90;;;;;;5043908;28;20029;-65
2023/02/06 00:17:41;;;;;;;25.55;5.80;;;3.10;99.90;;;;;;5044564;28;20036;-65
2023/02/06 00:20:08;;;;;;;22.77;5.82;;;3.10;99.90;;;;;;5030805;28;20025;-65
2023/02/06 00:22:34;;;;;;;21.55;5.18;;;3.10;99.90;;;;;;5044054;28;20041;-65
2023/02/06 00:24:59;;;;;;;18.55;4.85;;;3.10;99.90;;;;;;5050415;28;20115;-65
2023/02/06 00:27:25;;;;;;;20.58;5.10;;;3.10;99.90;;;;;;5048388;28;20100;-65
2023/02/06 00:29:51;;;;;;;16.77;4.25;;;3.20;99.90;;;;;;5047195;28;20499;-65
2023/02/06 00:32:17;;;;;;;14.18;4.47;;;3.20;99.90;;;;;;5046752;28;20443;-65
2023/02/06 00:34:43;;;;;;;14.40;5.10;;;3.20;99.90;;;;;;5048833;28;20104;-66
2023/02/06 00:37:09;;;;;;;14.35;4.85;;;3.20;99.90;;;;;;5047751;28;20037;-65
2023/02/06 00:39:34;;;;;;;13.25;3.92;;;3.30;99.90;;;;;;5042454;28;20032;-65
2023/02/06 00:42:00;;;;;;;23.00;4.32;;;3.30;99.90;;;;;;5050828;28;20118;-66
2023/02/06 00:44:26;;;;;;;33.70;5.57;;;3.30;99.90;;;;;;5041600;28;20029;-65
2023/02/06 00:46:51;;;;;;;21.45;4.40;;;3.20;99.90;;;;;;5049303;28;20029;-65
2023/02/06 00:49:17;;;;;;;15.82;3.45;;;3.10;99.90;;;;;;5049231;28;20677;-65
2023/02/06 00:51:42;;;;;;;16.70;3.85;;;3.10;99.90;;;;;;5051393;28;20017;-65
2023/02/06 00:54:08;;;;;;;18.27;4.10;;;3.00;99.90;;;;;;5049733;28;20025;-65
2023/02/06 00:56:34;;;;;;;20.92;4.70;;;2.90;99.90;;;;;;5048956;28;20024;-65
2023/02/06 00:59:00;;;;;;;13.75;3.55;;;2.80;99.90;;;;;;5050010;28;20078;-65
2023/02/06 01:01:27;;;;;;;12.65;3.67;;;2.80;99.90;;;;;;5055713;28;20024;-65
2023/02/06 01:03:52;;;;;;;16.42;3.78;;;2.70;99.90;;;;;;5053708;28;20025;-65
2023/02/06 01:06:19;;;;;;;18.42;4.00;;;2.60;99.90;;;;;;5047330;28;20091;-65
2023/02/06 01:08:45;;;;;;;12.93;3.78;;;2.60;99.90;;;;;;5028710;28;20049;-65
2023/02/06 01:11:13;;;;;;;8.45;3.13;;;2.50;99.90;;;;;;5052272;28;20495;-65
2023/02/06 01:13:39;;;;;;;13.95;3.53;;;2.50;99.90;;;;;;5031026;28;20029;-65
2023/02/06 01:16:11;;;;;;;17.92;4.40;;;2.50;99.90;;;;;;5025182;28;20040;-65
2023/02/06 01:18:38;;;;;;;16.05;3.95;;;2.50;99.90;;;;;;5041661;28;20517;-65
2023/02/06 01:21:23;;;;;;;14.73;3.28;;;2.40;99.90;;;;;;5042205;28;20029;-65
2023/02/06 01:23:51;;;;;;;11.80;3.45;;;2.40;99.90;;;;;;5053554;28;20036;-65
2023/02/06 01:26:18;;;;;;;14.10;3.25;;;2.40;99.90;;;;;;5042159;28;20036;-65
2023/02/06 01:28:46;;;;;;;15.20;2.92;;;2.30;99.90;;;;;;5046616;28;20033;-66
2023/02/06 01:31:13;;;;;;;17.20;3.60;;;2.30;99.90;;;;;;5051951;28;20056;-65
2023/02/06 01:33:39;;;;;;;14.10;3.15;;;2.20;99.90;;;;;;5054393;28;20035;-65
2023/02/06 01:36:06;;;;;;;14.05;3.58;;;2.30;99.90;;;;;;5046947;28;20032;-65
2023/02/06 01:38:32;;;;;;;11.18;2.67;;;2.20;99.90;;;;;;5057655;28;20028;-65
2023/02/06 01:40:59;;;;;;;13.43;3.28;;;2.20;99.90;;;;;;5033185;28;20025;-65
2023/02/06 01:43:28;;;;;;;15.50;3.55;;;2.20;99.90;;;;;;5051647;28;20032;-65
2023/02/06 01:45:54;;;;;;;11.88;2.90;;;2.10;99.90;;;;;;5053599;28;20399;-66
2023/02/06 01:48:48;;;;;;;12.13;3.28;;;2.00;99.90;;;;;;5052573;28;20021;-66
2023/02/06 01:51:19;;;;;;;15.80;2.92;;;1.90;99.90;;;;;;5046487;28;20033;-65
2023/02/06 01:53:49;;;;;;;16.80;4.28;;;1.90;99.90;;;;;;5047667;28;20053;-66
2023/02/06 01:56:18;;;;;;;11.68;3.60;;;1.70;99.90;;;;;;5043546;28;20020;-65
2023/02/06 01:58:47;;;;;;;12.82;2.83;;;1.60;99.90;;;;;;5022743;28;20025;-65
2023/02/06 02:01:14;;;;;;;14.60;2.75;;;1.60;99.90;;;;;;5047782;28;20039;-65
2023/02/06 02:03:43;;;;;;;11.77;3.58;;;1.40;99.90;;;;;;5047125;28;20104;-64
2023/02/06 02:06:12;;;;;;;22.20;4.68;;;1.40;99.90;;;;;;5041567;28;20042;-65
2023/02/06 02:08:49;;;;;;;17.52;3.15;;;1.30;99.90;;;;;;5032496;28;20132;-65
2023/02/06 02:11:21;;;;;;;9.00;3.10;;;1.20;99.90;;;;;;5043452;28;20021;-65
2023/02/06 02:13:49;;;;;;;7.75;2.20;;;1.20;99.90;;;;;;5030572;28;20021;-64
2023/02/06 02:16:33;;;;;;;19.92;3.67;;;1.20;99.90;;;;;;5043376;28;20032;-65
2023/02/06 02:19:22;;;;;;;12.75;2.75;;;1.20;99.90;;;;;;5047344;28;20035;-65
2023/02/06 02:22:17;;;;;;;8.60;3.60;;;1.20;99.90;;;;;;5036197;28;20032;-65
2023/02/06 02:25:30;;;;;;;8.90;2.65;;;1.20;99.90;;;;;;5024138;28;20040;-65
2023/02/06 02:28:33;;;;;;;10.55;3.08;;;1.00;99.90;;;;;;5039371;28;20499;-65
2023/02/06 02:31:32;;;;;;;20.70;3.50;;;1.00;99.90;;;;;;5041230;28;20033;-64
2023/02/06 02:34:12;;;;;;;14.80;3.13;;;0.90;99.90;;;;;;5047617;28;20029;-65
2023/02/06 02:36:59;;;;;;;11.25;2.75;;;0.90;99.90;;;;;;5045179;28;20024;-65
2023/02/06 02:39:43;;;;;;;9.23;2.80;;;0.90;99.90;;;;;;5044772;28;20091;-65
2023/02/06 02:42:36;;;;;;;17.55;5.85;;;0.90;99.90;;;;;;5046859;28;20025;-66
2023/02/06 02:45:19;;;;;;;10.82;3.47;;;0.90;99.90;;;;;;5045606;28;20091;-66
2023/02/06 02:47:54;;;;;;;22.08;3.53;;;0.80;99.90;;;;;;5041208;28;20025;-66
2023/02/06 02:50:20;;;;;;;11.07;3.15;;;0.80;99.90;;;;;;5072370;22;20102;-63
2023/02/06 02:52:46;;;;;;;15.00;2.63;;;0.80;99.90;;;;;;5010195;28;20088;-63
2023/02/06 02:55:17;;;;;;;7.90;2.75;;;0.70;99.90;;;;;;5011141;28;20021;-64
2023/02/06 02:57:45;;;;;;;14.68;2.97;;;0.60;99.90;;;;;;5001197;28;20026;-64
2023/02/06 03:00:12;;;;;;;16.83;3.33;;;0.60;99.90;;;;;;5019771;28;20029;-64
2023/02/06 03:02:39;;;;;;;23.90;3.90;;;0.60;99.90;;;;;;5008276;28;20387;-64
2023/02/06 03:05:10;;;;;;;10.02;3.53;;;0.60;99.90;;;;;;5012317;28;20633;-64
2023/02/06 03:07:58;;;;;;;14.90;3.78;;;0.70;99.90;;;;;;5030686;28;20128;-64
2023/02/06 03:10:40;;;;;;;23.77;3.30;;;0.60;99.90;;;;;;4998467;28;20042;-63
2023/02/06 03:13:15;;;;;;;21.38;5.40;;;0.60;99.90;;;;;;5029284;28;20527;-63
2023/02/06 03:15:58;;;;;;;23.55;4.93;;;0.60;99.90;;;;;;5023736;28;20029;-63
2023/02/06 03:18:41;;;;;;;17.40;4.90;;;0.50;99.90;;;;;;5020706;28;20044;-64
2023/02/06 03:21:10;;;;;;;21.63;4.57;;;0.60;99.90;;;;;;5018382;28;20022;-64
2023/02/06 03:23:40;;;;;;;26.15;4.95;;;0.60;99.90;;;;;;5019825;28;20026;-65
2023/02/06 03:26:09;;;;;;;16.80;3.92;;;0.60;99.90;;;;;;5019184;28;20472;-63
2023/02/06 03:28:38;;;;;;;15.02;5.03;;;0.60;99.90;;;;;;5007164;28;20030;-64
2023/02/06 03:31:08;;;;;;;24.08;6.75;;;0.60;99.90;;;;;;5019847;28;20473;-65
2023/02/06 03:33:54;;;;;;;47.75;11.77;;;0.60;99.90;;;;;;5019729;28;20113;-64
2023/02/06 03:36:20;;;;;;;22.23;7.60;;;0.60;99.90;;;;;;5004322;28;20034;-64
2023/02/06 03:38:48;;;;;;;35.58;7.43;;;0.70;99.90;;;;;;5024806;28;20029;-63
2023/02/06 03:41:16;;;;;;;33.38;7.45;;;0.60;99.90;;;;;;5014519;28;20167;-64
2023/02/06 03:43:46;;;;;;;24.70;5.60;;;0.70;99.90;;;;;;5025527;28;20442;-64
2023/02/06 03:46:13;;;;;;;35.63;7.63;;;0.70;99.90;;;;;;5007267;28;20029;-64
2023/02/06 03:48:43;;;;;;;43.78;8.43;;;0.80;99.90;;;;;;5011577;28;20027;-64
2023/02/06 03:51:14;;;;;;;29.98;7.63;;;0.70;99.90;;;;;;5027748;28;20034;-64
2023/02/06 03:53:43;;;;;;;34.35;7.45;;;0.70;99.90;;;;;;5029331;28;20039;-63
2023/02/06 03:56:14;;;;;;;20.45;7.18;;;0.70;99.90;;;;;;5024768;28;20044;-63
2023/02/06 03:58:40;;;;;;;29.00;8.57;;;0.70;99.90;;;;;;5029455;28;20485;-64
2023/02/06 04:01:07;;;;;;;25.40;8.38;;;0.60;99.90;;;;;;5024160;28;20033;-64
2023/02/06 04:03:32;;;;;;;42.63;8.90;;;0.60;99.90;;;;;;5028920;28;20076;-63
2023/02/06 04:05:58;;;;;;;40.33;9.25;;;0.60;99.90;;;;;;5022590;28;20532;-64
2023/02/06 04:08:24;;;;;;;33.22;9.85;;;0.60;99.90;;;;;;4993990;28;20031;-63
2023/02/06 04:10:50;;;;;;;46.58;9.73;;;0.60;99.90;;;;;;5030293;28;20100;-64
2023/02/06 04:13:15;;;;;;;37.20;9.07;;;0.50;99.90;;;;;;5032823;28;20025;-64
2023/02/06 04:15:41;;;;;;;27.80;8.18;;;0.50;99.90;;;;;;5029928;28;20025;-64
2023/02/06 04:18:06;;;;;;;29.08;8.57;;;0.50;99.90;;;;;;5030880;28;20100;-63
2023/02/06 04:20:32;;;;;;;23.58;7.82;;;0.40;99.90;;;;;;5025222;28;20029;-63
2023/02/06 04:22:58;;;;;;;38.47;8.85;;;0.40;99.90;;;;;;5028627;28;20048;-64
2023/02/06 04:25:25;;;;;;;38.53;8.43;;;0.30;99.90;;;;;;5031089;28;20057;-64
2023/02/06 04:27:50;;;;;;;37.38;9.93;;;0.30;99.90;;;;;;5029440;28;20037;-64
2023/02/06 04:30:17;;;;;;;31.13;8.63;;;0.20;99.90;;;;;;5012315;28;20025;-64
2023/02/06 04:32:42;;;;;;;54.97;12.23;;;0.20;99.90;;;;;;5030170;28;20026;-64
2023/02/06 04:35:08;;;;;;;54.22;14.15;;;0.20;99.90;;;;;;5025848;28;20028;-64
2023/02/06 04:37:33;;;;;;;46.60;14.27;;;0.20;99.90;;;;;;5028907;28;20029;-64
2023/02/06 04:39:59;;;;;;;58.17;15.07;;;0.10;99.90;;;;;;5029965;28;20057;-64
2023/02/06 04:42:25;;;;;;;44.67;13.07;;;0.10;99.90;;;;;;5029578;28;20033;-63
2023/02/06 04:44:50;;;;;;;46.50;14.23;;;0.10;99.90;;;;;;5031278;28;20053;-64
2023/02/06 04:47:16;;;;;;;37.72;11.65;;;0.10;99.90;;;;;;5012421;28;20045;-64
2023/02/06 04:49:42;;;;;;;33.80;9.57;;;0.00;99.90;;;;;;5027627;28;20041;-64
2023/02/06 04:52:07;;;;;;;30.15;9.70;;;0.00;99.90;;;;;;5013421;28;20040;-64
2023/02/06 04:54:33;;;;;;;32.13;9.98;;;0.00;99.90;;;;;;5028173;28;20025;-63
2023/02/06 04:56:59;;;;;;;27.17;8.18;;;0.00;99.90;;;;;;5026763;28;20109;-64
2023/02/06 04:59:24;;;;;;;26.98;9.88;;;0.10;99.90;;;;;;5029586;28;20033;-63
2023/02/06 05:01:50;;;;;;;28.88;8.45;;;0.10;99.90;;;;;;5023397;28;20038;-65
2023/02/06 05:04:15;;;;;;;28.70;9.30;;;0.10;99.90;;;;;;5023591;28;20527;-65
2023/02/06 05:06:41;;;;;;;33.22;8.73;;;0.20;99.90;;;;;;5025705;28;20407;-63
2023/02/06 05:09:06;;;;;;;50.92;11.63;;;0.40;99.90;;;;;;5010854;28;20061;-64
2023/02/06 05:11:32;;;;;;;38.10;10.50;;;0.40;99.90;;;;;;5023563;28;20492;-64
2023/02/06 05:13:58;;;;;;;38.17;10.23;;;0.50;99.90;;;;;;5009404;28;20498;-64
2023/02/06 05:16:23;;;;;;;38.25;13.98;;;0.50;99.90;;;;;;5027819;28;20543;-63
2023/02/06 05:18:55;;;;;;;37.08;12.65;;;0.40;99.90;;;;;;5026396;28;20032;-64
2023/02/06 05:21:22;;;;;;;41.22;12.38;;;0.40;99.90;;;;;;5010371;28;20088;-64
2023/02/06 05:23:47;;;;;;;36.30;11.82;;;0.30;99.90;;;;;;5014464;28;20578;-64
2023/02/06 05:26:13;;;;;;;24.77;9.25;;;0.20;99.90;;;;;;5028028;28;20025;-65
2023/02/06 05:28:39;;;;;;;19.48;7.20;;;0.20;99.90;;;;;;5029243;28;20030;-64
2023/02/06 05:31:04;;;;;;;35.97;8.52;;;0.20;99.90;;;;;;5025693;28;20040;-65
2023/02/06 05:33:30;;;;;;;28.95;9.23;;;0.10;99.90;;;;;;5010274;28;20499;-65
2023/02/06 05:36:04;;;;;;;45.45;11.02;;;0.20;99.90;;;;;;5026359;28;20034;-65
2023/02/06 05:38:30;;;;;;;41.30;11.88;;;0.20;99.90;;;;;;5005415;28;20100;-64
2023/02/06 05:40:55;;;;;;;45.80;12.35;;;0.30;99.90;;;;;;5022108;28;20488;-64
2023/02/06 05:43:21;;;;;;;44.63;14.25;;;0.40;99.90;;;;;;5031892;28;20083;-64
2023/02/06 05:45:46;;;;;;;44.13;14.18;;;0.50;99.90;;;;;;5029798;28;20052;-64
2023/02/06 05:48:12;;;;;;;54.00;18.10;;;0.50;99.90;;;;;;5029380;28;20030;-65
2023/02/06 05:50:38;;;;;;;51.67;15.70;;;0.60;99.90;;;;;;5009791;28;20041;-65
2023/02/06 05:53:03;;;;;;;43.50;11.95;;;0.70;99.90;;;;;;5032043;28;20026;-64
2023/02/06 05:55:29;;;;;;;38.45;11.18;;;0.70;99.90;;;;;;5031045;28;20034;-64
2023/02/06 05:57:54;;;;;;;39.25;10.48;;;0.80;99.90;;;;;;5031354;28;20036;-64
2023/02/06 06:00:20;;;;;;;46.20;11.13;;;0.90;99.90;;;;;;5027284;28;20031;-65
2023/02/06 06:02:46;;;;;;;57.58;14.35;;;0.90;99.90;;;;;;5028243;28;20029;-64
2023/02/06 06:05:11;;;;;;;58.40;16.08;;;0.90;99.90;;;;;;5028944;28;20034;-64
2023/02/06 06:07:37;;;;;;;47.80;13.55;;;1.00;99.90;;;;;;5013329;28;20040;-64
2023/02/06 06:10:03;;;;;;;36.58;11.43;;;1.00;99.90;;;;;;5017540;28;20096;-63
2023/02/06 06:12:29;;;;;;;34.50;10.05;;;1.10;99.90;;;;;;5027545;28;20025;-64
2023/02/06 06:14:54;;;;;;;42.70;10.57;;;1.10;99.90;;;;;;5026198;28;20028;-63
2023/02/06 06:17:20;;;;;;;24.38;7.65;;;1.20;99.90;;;;;;5022709;28;20029;-65
2023/02/06 06:19:45;;;;;;;19.67;6.50;;;1.20;99.90;;;;;;5023810;28;20117;-64
2023/02/06 06:22:11;;;;;;;40.15;8.82;;;1.10;99.90;;;;;;5028330;28;20034;-65
2023/02/06 06:24:37;;;;;;;33.63;9.38;;;1.10;99.90;;;;;;5011402;28;20034;-64
2023/02/06 06:27:02;;;;;;;27.50;8.18;;;1.20;99.90;;;;;;5028947;28;20033;-64
2023/02/06 06:29:28;;;;;;;26.42;8.23;;;1.30;99.90;;;;;;5028553;28;20376;-64
2023/02/06 06:31:54;;;;;;;39.22;9.95;;;1.30;99.90;;;;;;5028286;28;20088;-65
2023/02/06 06:34:20;;;;;;;42.88;9.27;;;1.30;99.90;;;;;;5025869;28;20518;-65
2023/02/06 06:36:46;;;;;;;42.92;9.80;;;1.40;99.90;;;;;;5029192;28;20033;-65
2023/02/06 06:39:12;;;;;;;27.38;8.90;;;1.40;99.90;;;;;;5028236;28;20036;-64
2023/02/06 06:41:38;;;;;;;49.20;16.40;;;1.40;99.90;;;;;;5029182;28;20040;-65
2023/02/06 06:44:03;;;;;;;31.83;10.85;;;1.40;99.90;;;;;;5028833;28;20033;-64
2023/02/06 06:46:29;;;;;;;25.98;9.00;;;1.40;99.90;;;;;;5017595;28;20037;-64
2023/02/06 06:48:55;;;;;;;40.00;9.65;;;1.40;99.90;;;;;;5027901;28;20025;-65
2023/02/06 06:51:20;;;;;;;42.05;11.52;;;1.50;99.90;;;;;;5028207;28;20052;-64
2023/02/06 06:53:46;;;;;;;39.33;9.70;;;1.50;99.90;;;;;;5023762;28;20025;-64
2023/02/06 06:56:13;;;;;;;41.42;12.10;;;1.60;99.90;;;;;;5021656;28;20029;-64
2023/02/06 06:58:40;;;;;;;36.22;11.75;;;1.60;99.90;;;;;;5025758;28;20094;-65
2023/02/06 07:01:05;;;;;;;30.00;10.13;;;1.60;99.90;;;;;;5026166;28;20033;-65
2023/02/06 07:03:31;;;;;;;26.20;9.68;;;1.60;99.90;;;;;;5028145;28;20510;-64
2023/02/06 07:05:57;;;;;;;26.85;10.88;;;1.70;99.90;;;;;;5023642;28;20045;-64
2023/02/06 07:08:23;;;;;;;39.53;10.30;;;1.70;99.90;;;;;;5025843;28;20034;-64
2023/02/06 07:10:48;;;;;;;32.70;9.55;;;1.70;99.90;;;;;;5011518;28;20060;-66
2023/02/06 07:13:14;;;;;;;29.65;9.80;;;1.70;99.90;;;;;;5011103;28;20626;-65
2023/02/06 07:15:40;;;;;;;29.45;9.75;;;1.70;99.90;;;;;;5008208;28;20033;-64
2023/02/06 07:18:06;;;;;;;41.42;10.02;;;1.70;99.90;;;;;;5007922;28;20030;-65
2023/02/06 07:20:32;;;;;;;29.33;10.02;;;1.80;99.90;;;;;;5025721;28;20033;-65
2023/02/06 07:23:00;;;;;;;35.15;9.18;;;1.80;99.90;;;;;;5026213;28;20029;-65
2023/02/06 07:25:25;;;;;;;48.38;17.40;;;1.80;99.90;;;;;;5025436;28;20029;-65
2023/02/06 07:27:51;;;;;;;38.70;11.30;;;1.80;99.90;;;;;;5027132;28;20034;-64
2023/02/06 07:30:17;;;;;;;47.15;13.90;;;1.80;99.90;;;;;;5027192;28;20025;-65
2023/02/06 07:32:42;;;;;;;37.65;14.77;;;1.90;99.90;;;;;;5029341;28;20033;-64
2023/02/06 07:35:08;;;;;;;44.92;13.77;;;1.90;99.90;;;;;;5022902;28;20087;-64
2023/02/06 07:37:33;;;;;;;37.30;11.82;;;1.80;99.90;;;;;;5025569;28;20033;-64
2023/02/06 07:39:59;;;;;;;33.05;9.88;;;1.80;99.90;;;;;;5006149;28;20030;-65
2023/02/06 07:42:24;;;;;;;32.47;9.77;;;1.90;99.90;;;;;;5028986;28;20064;-65
2023/02/06 07:44:50;;;;;;;47.55;13.48;;;2.00;99.90;;;;;;5028294;28;20107;-64
2023/02/06 07:47:16;;;;;;;37.70;10.70;;;2.00;99.90;;;;;;5032298;28;20126;-64
2023/02/06 07:49:41;;;;;;;35.10;11.48;;;2.10;99.90;;;;;;5029898;28;20030;-65
2023/02/06 07:52:07;;;;;;;30.50;10.00;;;2.20;99.90;;;;;;5031241;28;20026;-66
2023/02/06 07:54:33;;;;;;;33.58;12.05;;;2.20;99.90;;;;;;4985837;28;20049;-64
2023/02/06 07:56:58;;;;;;;26.88;9.93;;;2.10;99.90;;;;;;5030715;28;20033;-64
2023/02/06 07:59:25;;;;;;;32.67;12.60;;;2.20;99.90;;;;;;5033758;28;20057;-65
2023/02/06 08:01:51;;;;;;;33.38;12.43;;;2.20;99.90;;;;;;5032017;28;20028;-65
2023/02/06 08:04:17;;;;;;;39.47;11.05;;;2.20;99.90;;;;;;5030837;28;20037;-64
2023/02/06 08:06:43;;;;;;;29.75;11.63;;;2.30;99.90;;;;;;5032494;28;20048;-65
2023/02/06 08:09:12;;;;;;;17.73;6.60;;;2.30;99.90;;;;;;5032355;28;20022;-65
2023/02/06 08:11:38;;;;;;;15.40;6.53;;;2.30;99.90;;;;;;5014850;28;20054;-64
2023/02/06 08:14:03;;;;;;;25.23;7.75;;;2.40;99.90;;;;;;5030832;28;20091;-64
2023/02/06 08:16:29;;;;;;;31.23;10.13;;;2.40;99.90;;;;;;5032984;28;20028;-65
2023/02/06 08:18:55;;;;;;;33.67;10.05;;;2.50;99.90;;;;;;5012787;28;20048;-64
2023/02/06 08:21:22;;;;;;;28.48;10.75;;;2.50;99.90;;;;;;5012315;28;20063;-65
2023/02/06 08:23:55;;;;;;;25.60;9.20;;;2.60;99.90;;;;;;5029861;28;20029;-64
2023/02/06 08:26:22;;;;;;;23.37;7.27;;;2.70;99.90;;;;;;5026281;28;20037;-64
2023/02/06 08:28:49;;;;;;;17.58;6.57;;;2.80;99.90;;;;;;5031315;28;20280;-65
2023/02/06 08:31:30;;;;;;;16.58;6.57;;;2.90;99.90;;;;;;5025185;28;20029;-64
2023/02/06 08:33:56;;;;;;;21.92;7.78;;;2.70;99.90;;;;;;5029985;28;20075;-63
2023/02/06 08:36:23;;;;;;;21.30;8.43;;;2.70;99.90;;;;;;5013934;28;20111;-65
2023/02/06 08:38:49;;;;;;;19.58;6.43;;;2.60;99.90;;;;;;5029186;28;20116;-65
2023/02/06 08:41:21;;;;;;;20.20;7.40;;;2.70;99.90;;;;;;5030903;28;20548;-65
2023/02/06 08:43:48;;;;;;;21.13;7.25;;;2.70;99.90;;;;;;5013229;28;20040;-64
2023/02/06 08:46:14;;;;;;;22.42;7.13;;;2.90;99.90;;;;;;5028838;28;20041;-65
2023/02/06 08:48:40;;;;;;;17.88;7.75;;;2.90;99.90;;;;;;5020186;28;20476;-64
2023/02/06 08:51:07;;;;;;;29.02;8.88;;;3.00;99.90;;;;;;5013712;28;20034;-65
2023/02/06 08:53:33;;;;;;;21.00;7.90;;;3.10;99.90;;;;;;5032495;28;20026;-65
2023/02/06 08:56:00;;;;;;;24.45;7.63;;;3.10;99.90;;;;;;5030185;28;20381;-66
2023/02/06 08:58:26;;;;;;;24.85;7.32;;;3.20;99.90;;;;;;5026332;28;20033;-65
2023/02/06 09:00:52;;;;;;;37.00;8.82;;;3.30;99.90;;;;;;5031728;28;20052;-65
2023/02/06 09:03:19;;;;;;;32.38;11.20;;;3.30;99.90;;;;;;5069095;22;20004;-65
2023/02/06 09:05:45;;;;;;;23.98;9.30;;;3.40;99.90;;;;;;5001745;28;20021;-65
2023/02/06 09:08:11;;;;;;;41.40;13.88;;;3.40;99.90;;;;;;5004056;28;20417;-65
2023/02/06 09:10:36;;;;;;;35.33;10.77;;;3.50;99.90;;;;;;5008785;28;20026;-65
2023/02/06 09:13:02;;;;;;;26.25;8.88;;;3.60;99.90;;;;;;4988531;28;20417;-65
2023/02/06 09:15:27;;;;;;;22.15;7.22;;;3.70;99.90;;;;;;5011083;28;20029;-65
2023/02/06 09:17:53;;;;;;;19.05;7.47;;;3.90;99.90;;;;;;5012262;28;20485;-65
2023/02/06 09:20:18;;;;;;;21.80;10.35;;;4.00;99.90;;;;;;5010536;28;20138;-65
2023/02/06 09:22:44;;;;;;;34.92;14.88;;;4.00;99.90;;;;;;5008881;28;20037;-66
2023/02/06 09:25:10;;;;;;;35.03;12.02;;;4.00;99.90;;;;;;5009172;28;20025;-65
2023/02/06 09:27:36;;;;;;;28.08;9.32;;;4.10;99.90;;;;;;5003658;28;20040;-64
2023/02/06 09:30:02;;;;;;;21.00;10.48;;;4.20;99.90;;;;;;5010751;28;20017;-65
2023/02/06 09:32:28;;;;;;;23.73;8.23;;;4.30;99.90;;;;;;5009905;28;20022;-64
2023/02/06 09:34:53;;;;;;;27.25;9.70;;;4.40;99.90;;;;;;5008275;28;20037;-65
2023/02/06 09:37:20;;;;;;;19.60;9.77;;;4.60;99.90;;;;;;4992756;28;20018;-66
2023/02/06 09:39:46;;;;;;;26.15;10.20;;;4.60;99.90;;;;;;5004234;28;20018;-64
2023/02/06 09:42:33;;;;;;;28.45;9.80;;;4.60;99.90;;;;;;5009525;28;20080;-65
2023/02/06 09:45:12;;;;;;;31.15;8.98;;;4.70;99.90;;;;;;5002556;28;20021;-65
2023/02/06 09:47:44;;;;;;;28.30;9.43;;;4.80;99.90;;;;;;5011876;28;20274;-65
2023/02/06 09:50:18;;;;;;;22.27;9.45;;;4.80;99.90;;;;;;5004947;28;20029;-65
2023/02/06 09:53:21;;;;;;;20.98;8.57;;;4.80;99.90;;;;;;5010994;28;20396;-65
2023/02/06 09:55:59;;;;;;;25.80;9.20;;;4.60;99.90;;;;;;5010197;28;20018;-65
2023/02/06 09:58:25;;;;;;;23.80;9.18;;;4.60;99.90;;;;;;5006641;28;20057;-65
2023/02/06 10:01:19;;;;;;;24.10;8.35;;;4.70;99.90;;;;;;5008141;28;20022;-65
2023/02/06 10:03:48;;;;;;;24.55;7.75;;;4.70;99.90;;;;;;4994526;28;20140;-66
2023/02/06 10:06:27;;;;;;;27.00;8.20;;;4.80;99.90;;;;;;5008785;28;20030;-64
2023/02/06 10:09:10;;;;;;;23.00;7.93;;;5.10;99.90;;;;;;5003489;28;20032;-65
2023/02/06 10:12:11;;;;;;;28.67;7.93;;;5.50;99.90;;;;;;5007998;28;20022;-65
2023/02/06 10:14:45;;;;;;;29.83;8.13;;;6.00;99.90;;;;;;5006338;28;20034;-65
2023/02/06 10:17:24;;;;;;;21.27;8.32;;;6.20;99.90;;;;;;5000962;28;20061;-65
2023/02/06 10:19:53;;;;;;;15.23;6.70;;;6.40;99.90;;;;;;5002076;28;20053;-65
2023/02/06 10:22:37;;;;;;;17.13;7.32;;;6.40;99.90;;;;;;5004568;28;20076;-65
2023/02/06 10:25:29;;;;;;;19.70;7.32;;;6.40;99.90;;;;;;5007996;28;20163;-65
2023/02/06 10:28:05;;;;;;;19.50;7.50;;;6.90;99.90;;;;;;5004447;28;20025;-66
2023/02/06 10:30:54;;;;;;;25.73;7.95;;;6.90;99.90;;;;;;5007432;28;20028;-64
2023/02/06 10:33:51;;;;;;;28.13;8.88;;;6.40;99.90;;;;;;5000057;28;20073;-65
2023/02/06 10:36:20;;;;;;;25.65;7.72;;;6.40;99.90;;;;;;4974216;28;20184;-64
2023/02/06 10:39:17;;;;;;;25.88;7.57;;;6.30;99.90;;;;;;5007366;28;20048;-65
2023/02/06 10:42:06;;;;;;;24.98;7.90;;;6.20;99.90;;;;;;5005834;28;20026;-65
2023/02/06 10:44:44;;;;;;;23.27;7.97;;;6.00;99.90;;;;;;5000689;28;20033;-65
2023/02/06 10:47:42;;;;;;;21.48;6.93;;;5.80;99.90;;;;;;5005532;28;20033;-65
2023/02/06 10:50:40;;;;;;;30.02;7.57;;;5.60;99.90;;;;;;4988526;28;20049;-65
2023/02/06 10:53:19;;;;;;;19.60;7.45;;;5.80;99.90;;;;;;4997963;28;20642;-65
2023/02/06 10:55:56;;;;;;;24.73;7.00;;;5.70;99.90;;;;;;5010751;28;20032;-65
2023/02/06 10:58:33;;;;;;;18.45;7.97;;;5.90;99.90;;;;;;5005807;28;20040;-66
2023/02/06 11:00:59;;;;;;;25.27;8.13;;;6.30;99.90;;;;;;5004752;28;20125;-65
2023/02/06 11:03:29;;;;;;;24.63;7.10;;;6.30;99.90;;;;;;5007092;28;20022;-65
2023/02/06 11:05:56;;;;;;;24.30;6.88;;;6.60;99.90;;;;;;5005579;28;20523;-65
2023/02/06 11:08:28;;;;;;;20.63;6.80;;;6.60;99.90;;;;;;5008332;28;20079;-65
2023/02/06 11:10:54;;;;;;;19.20;7.00;;;6.60;99.90;;;;;;4996587;28;20054;-65
2023/02/06 11:13:23;;;;;;;20.45;7.50;;;6.60;99.90;;;;;;4988851;28;20052;-65
2023/02/06 11:16:08;;;;;;;19.73;6.65;;;6.50;99.90;;;;;;5006345;28;20113;-65
2023/02/06 11:18:37;;;;;;;21.08;6.90;;;6.50;99.90;;;;;;5009363;28;20033;-65
2023/02/06 11:21:05;;;;;;;26.83;6.88;;;6.60;99.90;;;;;;5003070;28;20029;-66
2023/02/06 11:23:33;;;;;;;20.15;7.05;;;6.30;99.90;;;;;;5003454;28;20026;-66
2023/02/06 11:26:17;;;;;;;23.08;7.13;;;6.30;99.90;;;;;;5006927;28;20026;-63
2023/02/06 11:28:51;;;;;;;29.35;7.18;;;6.60;99.90;;;;;;5000509;28;20014;-66
2023/02/06 11:31:19;;;;;;;16.08;6.47;;;6.50;99.90;;;;;;5005132;28;20034;-65
2023/02/06 11:33:44;;;;;;;23.02;7.40;;;6.70;99.90;;;;;;5008554;28;20033;-65
2023/02/06 11:36:26;;;;;;;19.92;7.38;;;6.60;99.90;;;;;;5004518;28;20389;-65
2023/02/06 11:39:02;;;;;;;20.85;7.13;;;6.60;99.90;;;;;;5003112;28;20030;-67
2023/02/06 11:41:29;;;;;;;30.73;8.63;;;6.50;99.90;;;;;;5003160;28;20066;-65
2023/02/06 11:44:05;;;;;;;25.08;6.65;;;6.70;99.90;;;;;;4995107;28;20108;-65
2023/02/06 11:46:34;;;;;;;19.27;7.53;;;6.80;99.90;;;;;;5004232;28;20036;-65
2023/02/06 11:49:04;;;;;;;22.30;6.80;;;6.60;99.90;;;;;;5008295;28;20500;-65
2023/02/06 11:51:45;;;;;;;23.30;8.65;;;6.40;99.90;;;;;;5008301;28;20025;-63
2023/02/06 11:54:21;;;;;;;21.85;7.00;;;6.50;99.90;;;;;;5009555;28;20087;-65
2023/02/06 11:57:20;;;;;;;22.42;7.45;;;6.30;99.90;;;;;;5003849;28;20038;-64
2023/02/06 11:59:55;;;;;;;25.75;7.25;;;6.60;99.90;;;;;;4990076;28;20030;-65
2023/02/06 12:02:48;;;;;;;17.75;5.78;;;6.70;99.90;;;;;;5011702;28;20129;-65
2023/02/06 12:05:15;;;;;;;18.38;5.95;;;6.30;99.90;;;;;;5001735;28;20025;-65
2023/02/06 12:07:51;;;;;;;20.08;7.63;;;6.10;99.90;;;;;;5008003;28;20046;-64
2023/02/06 12:10:19;;;;;;;21.85;7.18;;;6.10;99.90;;;;;;5007121;28;20029;-64
2023/02/06 12:12:50;;;;;;;21.65;5.72;;;6.10;99.90;;;;;;4987945;28;20038;-65
2023/02/06 12:15:22;;;;;;;23.45;8.00;;;6.50;99.90;;;;;;4981719;28;20030;-66
2023/02/06 12:18:02;;;;;;;19.88;7.32;;;6.90;99.90;;;;;;5006297;28;20034;-64
2023/02/06 12:20:32;;;;;;;33.70;7.85;;;6.80;99.90;;;;;;4988396;28;20030;-65
2023/02/06 12:23:26;;;;;;;27.55;7.70;;;6.60;99.90;;;;;;4989219;28;20038;-65
2023/02/06 12:25:56;;;;;;;22.88;7.53;;;6.60;99.90;;;;;;5002660;28;20544;-64
2023/02/06 12:28:43;;;;;;;19.67;7.13;;;6.40;99.90;;;;;;4990605;28;20029;-64
2023/02/06 12:31:18;;;;;;;23.88;6.72;;;6.30;99.90;;;;;;4981464;28;20026;-64
2023/02/06 12:33:57;;;;;;;28.30;8.85;;;6.30;99.90;;;;;;4984945;28;20435;-66
2023/02/06 12:36:29;;;;;;;34.33;8.63;;;6.40;99.90;;;;;;4984542;28;20026;-65
2023/02/06 12:39:03;;;;;;;25.17;7.03;;;6.30;99.90;;;;;;5010243;28;20596;-65
2023/02/06 12:41:55;;;;;;;22.75;7.88;;;6.50;99.90;;;;;;4987419;28;20473;-65
2023/02/06 12:44:43;;;;;;;29.88;8.07;;;6.60;99.90;;;;;;5007426;28;20067;-66
2023/02/06 12:47:33;;;;;;;22.45;7.40;;;6.50;99.90;;;;;;4987015;28;20109;-65
2023/02/06 12:50:13;;;;;;;18.98;7.35;;;6.30;99.90;;;;;;4983540;28;20029;-66
2023/02/06 12:52:49;;;;;;;22.63;7.25;;;6.30;99.90;;;;;;4993276;28;20022;-65
2023/02/06 12:55:43;;;;;;;32.67;8.13;;;6.40;99.90;;;;;;4992816;28;20026;-66
2023/02/06 12:58:35;;;;;;;27.70;8.52;;;6.60;99.90;;;;;;5010472;28;20105;-64
2023/02/06 13:01:19;;;;;;;34.25;9.80;;;6.50;99.90;;;;;;4997510;28;20084;-66
2023/02/06 13:03:50;;;;;;;;;;;6.70;99.90;;;;;;4989920;28;20539;-66